sensor_id;sensor_type;location;lat;lon;timestamp;P1;durP1;ratioP1;P2;durP2;ratioP2
27491;SDS011;14927;51.210;6.838;2022-08-19T00:01:41;5.68;;;5.07;;
27491;SDS011;14927;51.210;6.838;2022-08-19T00:04:31;6.22;;;4.97;;
27491;SDS011;14927;51.210;6.838;2022-08-19T00:10:05;8.75;;;5.25;;
27491;SDS011;14927;51.210;6.838;2022-08-19T00:12:51;7.38;;;5.28;;
27491;SDS011;14927;51.210;6.838;2022-08-19T00:15:36;6.82;;;5.53;;
27491;SDS011;14927;51.210;6.838;2022-08-19T00:18:21;6.18;;;5.57;;
27491;SDS011;14927;51.210;6.838;2022-08-19T00:21:06;7.75;;;5.43;;
27491;SDS011;14927;51.210;6.838;2022-08-19T00:23:51;5.63;;;5.13;;
27491;SDS011;14927;51.210;6.838;2022-08-19T00:26:37;7.80;;;5.63;;
27491;SDS011;14927;51.210;6.838;2022-08-19T00:29:23;6.25;;;5.07;;
27491;SDS011;14927;51.210;6.838;2022-08-19T00:32:08;7.22;;;5.82;;
27491;SDS011;14927;51.210;6.838;2022-08-19T00:34:54;7.65;;;5.22;;
27491;SDS011;14927;51.210;6.838;2022-08-19T00:37:39;6.63;;;5.47;;
27491;SDS011;14927;51.210;6.838;2022-08-19T00:40:26;6.82;;;5.85;;
27491;SDS011;14927;51.210;6.838;2022-08-19T00:43:11;5.32;;;4.82;;
27491;SDS011;14927;51.210;6.838;2022-08-19T00:45:57;7.78;;;5.65;;
27491;SDS011;14927;51.210;6.838;2022-08-19T00:48:41;10.65;;;5.60;;
27491;SDS011;14927;51.210;6.838;2022-08-19T00:51:27;9.05;;;5.43;;
27491;SDS011;14927;51.210;6.838;2022-08-19T00:54:14;6.63;;;5.22;;
27491;SDS011;14927;51.210;6.838;2022-08-19T00:57:00;6.45;;;5.10;;
27491;SDS011;14927;51.210;6.838;2022-08-19T00:59:51;7.37;;;5.37;;
27491;SDS011;14927;51.210;6.838;2022-08-19T01:02:38;5.63;;;4.82;;
27491;SDS011;14927;51.210;6.838;2022-08-19T01:05:25;5.63;;;5.13;;
27491;SDS011;14927;51.210;6.838;2022-08-19T01:08:13;5.82;;;5.22;;
27491;SDS011;14927;51.210;6.838;2022-08-19T01:11:00;6.72;;;5.43;;
27491;SDS011;14927;51.210;6.838;2022-08-19T01:13:44;6.07;;;4.93;;
27491;SDS011;14927;51.210;6.838;2022-08-19T01:16:30;8.55;;;5.85;;
27491;SDS011;14927;51.210;6.838;2022-08-19T01:19:21;7.10;;;5.50;;
27491;SDS011;14927;51.210;6.838;2022-08-19T01:22:16;5.68;;;5.10;;
27491;SDS011;14927;51.210;6.838;2022-08-19T01:25:06;7.03;;;5.85;;
27491;SDS011;14927;51.210;6.838;2022-08-19T01:27:51;7.75;;;5.93;;
27491;SDS011;14927;51.210;6.838;2022-08-19T01:30:36;7.68;;;5.60;;
27491;SDS011;14927;51.210;6.838;2022-08-19T01:33:22;8.70;;;5.63;;
27491;SDS011;14927;51.210;6.838;2022-08-19T01:36:09;6.60;;;5.68;;
27491;SDS011;14927;51.210;6.838;2022-08-19T01:39:03;10.38;;;5.00;;
27491;SDS011;14927;51.210;6.838;2022-08-19T01:41:51;5.40;;;4.85;;
27491;SDS011;14927;51.210;6.838;2022-08-19T01:44:39;6.05;;;5.45;;
27491;SDS011;14927;51.210;6.838;2022-08-19T01:47:25;9.23;;;5.07;;
27491;SDS011;14927;51.210;6.838;2022-08-19T01:50:10;7.32;;;5.70;;
27491;SDS011;14927;51.210;6.838;2022-08-19T01:52:55;6.50;;;5.50;;
27491;SDS011;14927;51.210;6.838;2022-08-19T01:55:41;8.23;;;5.45;;
27491;SDS011;14927;51.210;6.838;2022-08-19T01:58:29;6.63;;;5.60;;
27491;SDS011;14927;51.210;6.838;2022-08-19T02:01:20;6.13;;;5.07;;
27491;SDS011;14927;51.210;6.838;2022-08-19T02:04:05;8.80;;;6.13;;
27491;SDS011;14927;51.210;6.838;2022-08-19T02:06:50;9.02;;;5.90;;
27491;SDS011;14927;51.210;6.838;2022-08-19T02:09:35;8.40;;;6.60;;
27491;SDS011;14927;51.210;6.838;2022-08-19T02:12:20;10.43;;;6.07;;
27491;SDS011;14927;51.210;6.838;2022-08-19T02:15:05;7.82;;;5.75;;
27491;SDS011;14927;51.210;6.838;2022-08-19T02:17:51;8.15;;;6.43;;
27491;SDS011;14927;51.210;6.838;2022-08-19T02:20:36;10.13;;;5.60;;
27491;SDS011;14927;51.210;6.838;2022-08-19T02:23:23;7.55;;;5.88;;
27491;SDS011;14927;51.210;6.838;2022-08-19T02:26:08;7.38;;;6.03;;
27491;SDS011;14927;51.210;6.838;2022-08-19T02:28:53;6.65;;;6.05;;
27491;SDS011;14927;51.210;6.838;2022-08-19T02:31:39;11.15;;;5.95;;
27491;SDS011;14927;51.210;6.838;2022-08-19T02:34:23;9.65;;;6.05;;
27491;SDS011;14927;51.210;6.838;2022-08-19T02:37:08;13.77;;;6.07;;
27491;SDS011;14927;51.210;6.838;2022-08-19T02:40:13;8.18;;;6.47;;
27491;SDS011;14927;51.210;6.838;2022-08-19T02:42:58;13.07;;;6.32;;
27491;SDS011;14927;51.210;6.838;2022-08-19T02:45:49;8.10;;;6.43;;
27491;SDS011;14927;51.210;6.838;2022-08-19T02:48:35;7.57;;;6.32;;
27491;SDS011;14927;51.210;6.838;2022-08-19T02:51:21;9.07;;;6.03;;
27491;SDS011;14927;51.210;6.838;2022-08-19T02:54:09;11.80;;;6.13;;
27491;SDS011;14927;51.210;6.838;2022-08-19T02:56:54;9.18;;;6.63;;
27491;SDS011;14927;51.210;6.838;2022-08-19T02:59:39;7.68;;;6.15;;
27491;SDS011;14927;51.210;6.838;2022-08-19T03:02:24;7.45;;;6.18;;
27491;SDS011;14927;51.210;6.838;2022-08-19T03:05:08;8.68;;;6.07;;
27491;SDS011;14927;51.210;6.838;2022-08-19T03:07:54;7.85;;;6.63;;
27491;SDS011;14927;51.210;6.838;2022-08-19T03:10:39;7.88;;;6.45;;
27491;SDS011;14927;51.210;6.838;2022-08-19T03:13:30;8.38;;;6.28;;
27491;SDS011;14927;51.210;6.838;2022-08-19T03:16:15;10.30;;;6.80;;
27491;SDS011;14927;51.210;6.838;2022-08-19T03:19:01;8.57;;;7.28;;
27491;SDS011;14927;51.210;6.838;2022-08-19T03:21:46;8.90;;;6.50;;
27491;SDS011;14927;51.210;6.838;2022-08-19T03:24:31;8.90;;;6.50;;
27491;SDS011;14927;51.210;6.838;2022-08-19T03:27:18;7.05;;;6.22;;
27491;SDS011;14927;51.210;6.838;2022-08-19T03:30:03;9.30;;;7.22;;
27491;SDS011;14927;51.210;6.838;2022-08-19T03:32:49;7.90;;;6.57;;
27491;SDS011;14927;51.210;6.838;2022-08-19T03:35:34;11.88;;;7.60;;
27491;SDS011;14927;51.210;6.838;2022-08-19T03:38:20;7.97;;;6.65;;
27491;SDS011;14927;51.210;6.838;2022-08-19T03:41:06;9.18;;;7.13;;
27491;SDS011;14927;51.210;6.838;2022-08-19T03:43:56;9.23;;;6.93;;
27491;SDS011;14927;51.210;6.838;2022-08-19T03:46:45;10.25;;;6.93;;
27491;SDS011;14927;51.210;6.838;2022-08-19T03:49:32;7.22;;;6.18;;
27491;SDS011;14927;51.210;6.838;2022-08-19T03:52:18;12.77;;;7.55;;
27491;SDS011;14927;51.210;6.838;2022-08-19T03:55:03;8.05;;;7.00;;
27491;SDS011;14927;51.210;6.838;2022-08-19T03:57:48;9.98;;;7.28;;
27491;SDS011;14927;51.210;6.838;2022-08-19T04:00:32;9.20;;;7.00;;
27491;SDS011;14927;51.210;6.838;2022-08-19T04:03:17;12.95;;;7.93;;
27491;SDS011;14927;51.210;6.838;2022-08-19T04:06:14;8.30;;;7.45;;
27491;SDS011;14927;51.210;6.838;2022-08-19T04:09:11;8.32;;;7.05;;
27491;SDS011;14927;51.210;6.838;2022-08-19T04:11:56;10.73;;;7.15;;
27491;SDS011;14927;51.210;6.838;2022-08-19T04:14:41;8.68;;;7.38;;
27491;SDS011;14927;51.210;6.838;2022-08-19T04:17:26;14.43;;;7.03;;
27491;SDS011;14927;51.210;6.838;2022-08-19T04:20:10;8.95;;;7.18;;
27491;SDS011;14927;51.210;6.838;2022-08-19T04:22:56;8.70;;;6.85;;
27491;SDS011;14927;51.210;6.838;2022-08-19T04:25:41;11.98;;;6.78;;
27491;SDS011;14927;51.210;6.838;2022-08-19T04:28:27;9.45;;;6.18;;
27491;SDS011;14927;51.210;6.838;2022-08-19T04:31:13;7.78;;;5.97;;
27491;SDS011;14927;51.210;6.838;2022-08-19T04:34:02;7.45;;;5.63;;
27491;SDS011;14927;51.210;6.838;2022-08-19T04:36:50;7.30;;;5.57;;
27491;SDS011;14927;51.210;6.838;2022-08-19T04:39:36;7.35;;;6.03;;
27491;SDS011;14927;51.210;6.838;2022-08-19T04:42:39;9.07;;;6.35;;
27491;SDS011;14927;51.210;6.838;2022-08-19T04:45:24;8.73;;;7.13;;
27491;SDS011;14927;51.210;6.838;2022-08-19T04:48:09;9.82;;;6.60;;
27491;SDS011;14927;51.210;6.838;2022-08-19T04:50:55;7.75;;;6.57;;
27491;SDS011;14927;51.210;6.838;2022-08-19T04:53:41;9.48;;;6.15;;
27491;SDS011;14927;51.210;6.838;2022-08-19T04:56:26;8.82;;;7.15;;
27491;SDS011;14927;51.210;6.838;2022-08-19T04:59:11;14.02;;;7.20;;
27491;SDS011;14927;51.210;6.838;2022-08-19T05:01:55;11.85;;;6.85;;
27491;SDS011;14927;51.210;6.838;2022-08-19T05:04:40;8.15;;;6.60;;
27491;SDS011;14927;51.210;6.838;2022-08-19T05:07:25;11.38;;;7.22;;
27491;SDS011;14927;51.210;6.838;2022-08-19T05:10:10;11.27;;;8.15;;
27491;SDS011;14927;51.210;6.838;2022-08-19T05:12:55;13.98;;;8.00;;
27491;SDS011;14927;51.210;6.838;2022-08-19T05:15:41;11.30;;;7.72;;
27491;SDS011;14927;51.210;6.838;2022-08-19T05:18:27;12.18;;;9.48;;
27491;SDS011;14927;51.210;6.838;2022-08-19T05:21:31;9.20;;;8.18;;
27491;SDS011;14927;51.210;6.838;2022-08-19T05:24:36;14.27;;;9.02;;
27491;SDS011;14927;51.210;6.838;2022-08-19T05:27:20;11.43;;;8.82;;
27491;SDS011;14927;51.210;6.838;2022-08-19T05:30:05;10.73;;;8.73;;
27491;SDS011;14927;51.210;6.838;2022-08-19T05:32:51;11.98;;;8.82;;
27491;SDS011;14927;51.210;6.838;2022-08-19T05:35:38;10.30;;;9.23;;
27491;SDS011;14927;51.210;6.838;2022-08-19T05:38:23;16.80;;;10.52;;
27491;SDS011;14927;51.210;6.838;2022-08-19T05:41:10;23.10;;;14.18;;
27491;SDS011;14927;51.210;6.838;2022-08-19T05:43:58;22.02;;;16.38;;
27491;SDS011;14927;51.210;6.838;2022-08-19T05:46:47;28.92;;;24.73;;
27491;SDS011;14927;51.210;6.838;2022-08-19T05:49:32;31.20;;;26.65;;
27491;SDS011;14927;51.210;6.838;2022-08-19T05:52:20;36.45;;;27.90;;
27491;SDS011;14927;51.210;6.838;2022-08-19T05:55:15;39.22;;;31.83;;
27491;SDS011;14927;51.210;6.838;2022-08-19T05:58:00;45.38;;;34.55;;
27491;SDS011;14927;51.210;6.838;2022-08-19T06:00:48;43.20;;;35.83;;
27491;SDS011;14927;51.210;6.838;2022-08-19T06:03:33;44.67;;;37.53;;
27491;SDS011;14927;51.210;6.838;2022-08-19T06:06:20;49.55;;;37.97;;
27491;SDS011;14927;51.210;6.838;2022-08-19T06:09:06;53.53;;;39.13;;
27491;SDS011;14927;51.210;6.838;2022-08-19T06:11:54;48.45;;;38.53;;
27491;SDS011;14927;51.210;6.838;2022-08-19T06:14:43;45.03;;;38.35;;
27491;SDS011;14927;51.210;6.838;2022-08-19T06:17:28;45.75;;;37.70;;
27491;SDS011;14927;51.210;6.838;2022-08-19T06:20:14;47.47;;;37.38;;
27491;SDS011;14927;51.210;6.838;2022-08-19T06:22:59;42.70;;;36.50;;
27491;SDS011;14927;51.210;6.838;2022-08-19T06:25:44;44.15;;;36.78;;
27491;SDS011;14927;51.210;6.838;2022-08-19T06:28:29;43.47;;;34.03;;
27491;SDS011;14927;51.210;6.838;2022-08-19T06:31:14;42.67;;;35.78;;
27491;SDS011;14927;51.210;6.838;2022-08-19T06:34:05;46.00;;;34.65;;
27491;SDS011;14927;51.210;6.838;2022-08-19T06:36:50;44.70;;;34.67;;
27491;SDS011;14927;51.210;6.838;2022-08-19T06:42:27;44.10;;;36.53;;
27491;SDS011;14927;51.210;6.838;2022-08-19T06:45:12;53.72;;;36.95;;
27491;SDS011;14927;51.210;6.838;2022-08-19T06:47:58;44.13;;;37.00;;
27491;SDS011;14927;51.210;6.838;2022-08-19T06:50:43;45.60;;;37.28;;
27491;SDS011;14927;51.210;6.838;2022-08-19T06:53:28;47.97;;;36.33;;
27491;SDS011;14927;51.210;6.838;2022-08-19T06:56:14;47.28;;;36.00;;
27491;SDS011;14927;51.210;6.838;2022-08-19T06:59:05;48.88;;;36.85;;
27491;SDS011;14927;51.210;6.838;2022-08-19T07:01:56;43.78;;;35.75;;
27491;SDS011;14927;51.210;6.838;2022-08-19T07:04:41;46.40;;;37.40;;
27491;SDS011;14927;51.210;6.838;2022-08-19T07:07:25;49.22;;;36.30;;
27491;SDS011;14927;51.210;6.838;2022-08-19T07:10:10;42.97;;;36.38;;
27491;SDS011;14927;51.210;6.838;2022-08-19T07:12:55;46.00;;;34.22;;
27491;SDS011;14927;51.210;6.838;2022-08-19T07:15:39;53.45;;;36.00;;
27491;SDS011;14927;51.210;6.838;2022-08-19T07:18:24;43.67;;;35.00;;
27491;SDS011;14927;51.210;6.838;2022-08-19T07:21:14;44.47;;;36.17;;
27491;SDS011;14927;51.210;6.838;2022-08-19T07:24:01;48.22;;;35.55;;
27491;SDS011;14927;51.210;6.838;2022-08-19T07:26:46;41.55;;;35.95;;
27491;SDS011;14927;51.210;6.838;2022-08-19T07:29:32;46.28;;;35.33;;
27491;SDS011;14927;51.210;6.838;2022-08-19T07:32:19;49.10;;;36.25;;
27491;SDS011;14927;51.210;6.838;2022-08-19T07:35:03;43.15;;;35.47;;
27491;SDS011;14927;51.210;6.838;2022-08-19T07:37:49;43.30;;;35.08;;
27491;SDS011;14927;51.210;6.838;2022-08-19T07:40:34;40.22;;;33.22;;
27491;SDS011;14927;51.210;6.838;2022-08-19T07:43:19;42.25;;;33.60;;
27491;SDS011;14927;51.210;6.838;2022-08-19T07:46:09;43.30;;;34.50;;
27491;SDS011;14927;51.210;6.838;2022-08-19T07:48:54;45.15;;;34.25;;
27491;SDS011;14927;51.210;6.838;2022-08-19T07:51:39;41.85;;;33.35;;
27491;SDS011;14927;51.210;6.838;2022-08-19T07:54:25;43.72;;;32.85;;
27491;SDS011;14927;51.210;6.838;2022-08-19T07:57:11;42.53;;;33.03;;
27491;SDS011;14927;51.210;6.838;2022-08-19T07:59:56;39.33;;;30.13;;
27491;SDS011;14927;51.210;6.838;2022-08-19T08:02:41;38.75;;;31.58;;
27491;SDS011;14927;51.210;6.838;2022-08-19T08:05:26;39.78;;;31.00;;
27491;SDS011;14927;51.210;6.838;2022-08-19T08:08:30;41.30;;;30.95;;
27491;SDS011;14927;51.210;6.838;2022-08-19T08:11:23;37.08;;;29.17;;
27491;SDS011;14927;51.210;6.838;2022-08-19T08:14:08;40.28;;;29.00;;
27491;SDS011;14927;51.210;6.838;2022-08-19T08:16:53;34.47;;;27.20;;
27491;SDS011;14927;51.210;6.838;2022-08-19T08:19:37;32.95;;;26.00;;
27491;SDS011;14927;51.210;6.838;2022-08-19T08:22:24;30.45;;;25.27;;
27491;SDS011;14927;51.210;6.838;2022-08-19T08:25:28;31.55;;;24.48;;
27491;SDS011;14927;51.210;6.838;2022-08-19T08:28:15;29.40;;;23.88;;
27491;SDS011;14927;51.210;6.838;2022-08-19T08:31:01;29.85;;;21.80;;
27491;SDS011;14927;51.210;6.838;2022-08-19T08:33:48;37.17;;;26.05;;
27491;SDS011;14927;51.210;6.838;2022-08-19T08:36:35;34.67;;;25.63;;
27491;SDS011;14927;51.210;6.838;2022-08-19T08:39:25;35.78;;;25.33;;
27491;SDS011;14927;51.210;6.838;2022-08-19T08:42:18;34.65;;;26.35;;
27491;SDS011;14927;51.210;6.838;2022-08-19T08:45:13;40.53;;;28.88;;
27491;SDS011;14927;51.210;6.838;2022-08-19T08:48:02;41.15;;;28.85;;
27491;SDS011;14927;51.210;6.838;2022-08-19T08:50:58;43.97;;;31.63;;
27491;SDS011;14927;51.210;6.838;2022-08-19T08:53:46;44.70;;;31.30;;
27491;SDS011;14927;51.210;6.838;2022-08-19T08:56:35;43.53;;;29.38;;
27491;SDS011;14927;51.210;6.838;2022-08-19T08:59:28;42.08;;;30.85;;
27491;SDS011;14927;51.210;6.838;2022-08-19T09:02:19;38.55;;;29.75;;
27491;SDS011;14927;51.210;6.838;2022-08-19T09:05:05;41.63;;;30.77;;
27491;SDS011;14927;51.210;6.838;2022-08-19T09:10:55;33.75;;;25.65;;
27491;SDS011;14927;51.210;6.838;2022-08-19T09:16:36;27.92;;;21.58;;
27491;SDS011;14927;51.210;6.838;2022-08-19T09:19:32;32.08;;;24.20;;
27491;SDS011;14927;51.210;6.838;2022-08-19T09:22:20;36.17;;;25.65;;
27491;SDS011;14927;51.210;6.838;2022-08-19T09:25:07;34.40;;;23.58;;
27491;SDS011;14927;51.210;6.838;2022-08-19T09:27:58;29.85;;;21.33;;
27491;SDS011;14927;51.210;6.838;2022-08-19T09:30:50;28.58;;;20.95;;
27491;SDS011;14927;51.210;6.838;2022-08-19T09:33:36;25.98;;;20.52;;
27491;SDS011;14927;51.210;6.838;2022-08-19T09:36:22;28.85;;;21.17;;
27491;SDS011;14927;51.210;6.838;2022-08-19T09:39:13;25.45;;;18.85;;
27491;SDS011;14927;51.210;6.838;2022-08-19T09:41:58;26.17;;;18.15;;
27491;SDS011;14927;51.210;6.838;2022-08-19T09:44:43;22.98;;;17.52;;
27491;SDS011;14927;51.210;6.838;2022-08-19T09:47:37;25.83;;;18.15;;
27491;SDS011;14927;51.210;6.838;2022-08-19T09:50:23;26.85;;;17.40;;
27491;SDS011;14927;51.210;6.838;2022-08-19T09:53:08;24.83;;;16.25;;
27491;SDS011;14927;51.210;6.838;2022-08-19T09:55:54;24.70;;;17.13;;
27491;SDS011;14927;51.210;6.838;2022-08-19T09:58:39;23.35;;;15.95;;
27491;SDS011;14927;51.210;6.838;2022-08-19T10:01:26;21.38;;;16.77;;
27491;SDS011;14927;51.210;6.838;2022-08-19T10:04:15;21.38;;;16.75;;
27491;SDS011;14927;51.210;6.838;2022-08-19T10:07:01;25.67;;;17.73;;
27491;SDS011;14927;51.210;6.838;2022-08-19T10:09:45;18.15;;;13.95;;
27491;SDS011;14927;51.210;6.838;2022-08-19T10:12:31;22.35;;;15.63;;
27491;SDS011;14927;51.210;6.838;2022-08-19T10:15:18;23.92;;;17.58;;
27491;SDS011;14927;51.210;6.838;2022-08-19T10:18:05;22.70;;;17.25;;
27491;SDS011;14927;51.210;6.838;2022-08-19T10:20:51;21.83;;;16.08;;
27491;SDS011;14927;51.210;6.838;2022-08-19T10:23:46;21.35;;;15.30;;
27491;SDS011;14927;51.210;6.838;2022-08-19T10:26:42;19.85;;;15.18;;
27491;SDS011;14927;51.210;6.838;2022-08-19T10:29:32;22.38;;;14.75;;
27491;SDS011;14927;51.210;6.838;2022-08-19T10:32:18;19.83;;;15.25;;
27491;SDS011;14927;51.210;6.838;2022-08-19T10:35:03;20.23;;;14.10;;
27491;SDS011;14927;51.210;6.838;2022-08-19T10:37:53;18.60;;;15.40;;
27491;SDS011;14927;51.210;6.838;2022-08-19T10:40:38;18.63;;;14.90;;
27491;SDS011;14927;51.210;6.838;2022-08-19T10:43:22;18.63;;;14.13;;
27491;SDS011;14927;51.210;6.838;2022-08-19T10:46:09;17.02;;;13.32;;
27491;SDS011;14927;51.210;6.838;2022-08-19T10:48:58;17.50;;;13.20;;
27491;SDS011;14927;51.210;6.838;2022-08-19T10:51:45;14.43;;;11.98;;
27491;SDS011;14927;51.210;6.838;2022-08-19T10:54:48;13.27;;;11.75;;
27491;SDS011;14927;51.210;6.838;2022-08-19T10:57:52;13.32;;;10.77;;
27491;SDS011;14927;51.210;6.838;2022-08-19T11:00:37;16.80;;;10.50;;
27491;SDS011;14927;51.210;6.838;2022-08-19T11:03:21;12.55;;;10.18;;
27491;SDS011;14927;51.210;6.838;2022-08-19T11:06:17;11.98;;;9.63;;
27491;SDS011;14927;51.210;6.838;2022-08-19T11:09:02;12.82;;;8.57;;
27491;SDS011;14927;51.210;6.838;2022-08-19T11:11:48;10.68;;;8.23;;
27491;SDS011;14927;51.210;6.838;2022-08-19T11:14:36;11.00;;;8.63;;
27491;SDS011;14927;51.210;6.838;2022-08-19T11:17:23;13.60;;;9.05;;
27491;SDS011;14927;51.210;6.838;2022-08-19T11:20:14;14.95;;;7.93;;
27491;SDS011;14927;51.210;6.838;2022-08-19T11:22:59;12.82;;;9.23;;
27491;SDS011;14927;51.210;6.838;2022-08-19T11:25:44;9.73;;;8.15;;
27491;SDS011;14927;51.210;6.838;2022-08-19T11:28:29;11.15;;;8.48;;
27491;SDS011;14927;51.210;6.838;2022-08-19T11:31:16;11.55;;;8.02;;
27491;SDS011;14927;51.210;6.838;2022-08-19T11:34:04;10.38;;;8.15;;
27491;SDS011;14927;51.210;6.838;2022-08-19T11:36:51;10.20;;;7.47;;
27491;SDS011;14927;51.210;6.838;2022-08-19T11:39:36;17.60;;;9.35;;
27491;SDS011;14927;51.210;6.838;2022-08-19T11:42:21;9.63;;;8.23;;
27491;SDS011;14927;51.210;6.838;2022-08-19T11:45:27;10.57;;;8.45;;
27491;SDS011;14927;51.210;6.838;2022-08-19T11:48:18;13.80;;;10.00;;
27491;SDS011;14927;51.210;6.838;2022-08-19T11:51:10;8.90;;;8.05;;
27491;SDS011;14927;51.210;6.838;2022-08-19T11:53:59;11.13;;;8.68;;
27491;SDS011;14927;51.210;6.838;2022-08-19T11:56:45;12.35;;;8.75;;
27491;SDS011;14927;51.210;6.838;2022-08-19T11:59:31;10.35;;;6.20;;
27491;SDS011;14927;51.210;6.838;2022-08-19T12:02:15;7.05;;;6.22;;
27491;SDS011;14927;51.210;6.838;2022-08-19T12:05:00;8.10;;;6.35;;
27491;SDS011;14927;51.210;6.838;2022-08-19T12:07:46;11.57;;;7.05;;
27491;SDS011;14927;51.210;6.838;2022-08-19T12:10:31;9.93;;;6.30;;
27491;SDS011;14927;51.210;6.838;2022-08-19T12:13:16;7.53;;;5.65;;
27491;SDS011;14927;51.210;6.838;2022-08-19T12:16:09;17.33;;;6.35;;
27491;SDS011;14927;51.210;6.838;2022-08-19T12:19:01;8.73;;;6.65;;
27491;SDS011;14927;51.210;6.838;2022-08-19T12:21:51;9.10;;;6.55;;
27491;SDS011;14927;51.210;6.838;2022-08-19T12:24:38;10.00;;;6.88;;
27491;SDS011;14927;51.210;6.838;2022-08-19T12:27:23;9.60;;;5.68;;
27491;SDS011;14927;51.210;6.838;2022-08-19T12:30:09;8.93;;;5.50;;
27491;SDS011;14927;51.210;6.838;2022-08-19T12:32:55;9.43;;;5.15;;
27491;SDS011;14927;51.210;6.838;2022-08-19T12:35:45;7.00;;;5.13;;
27491;SDS011;14927;51.210;6.838;2022-08-19T12:38:34;8.77;;;7.00;;
27491;SDS011;14927;51.210;6.838;2022-08-19T12:41:20;10.30;;;6.40;;
27491;SDS011;14927;51.210;6.838;2022-08-19T12:44:06;8.38;;;5.20;;
27491;SDS011;14927;51.210;6.838;2022-08-19T12:46:50;6.50;;;5.47;;
27491;SDS011;14927;51.210;6.838;2022-08-19T12:52:25;6.97;;;5.45;;
27491;SDS011;14927;51.210;6.838;2022-08-19T12:55:10;7.15;;;5.30;;
27491;SDS011;14927;51.210;6.838;2022-08-19T12:57:55;6.75;;;5.78;;
27491;SDS011;14927;51.210;6.838;2022-08-19T13:00:40;10.07;;;5.22;;
27491;SDS011;14927;51.210;6.838;2022-08-19T13:03:25;6.38;;;5.25;;
27491;SDS011;14927;51.210;6.838;2022-08-19T13:06:13;5.78;;;5.13;;
27491;SDS011;14927;51.210;6.838;2022-08-19T13:08:58;9.10;;;4.53;;
27491;SDS011;14927;51.210;6.838;2022-08-19T13:11:43;6.57;;;5.00;;
27491;SDS011;14927;51.210;6.838;2022-08-19T13:14:28;7.40;;;4.05;;
27491;SDS011;14927;51.210;6.838;2022-08-19T13:17:15;5.72;;;3.85;;
27491;SDS011;14927;51.210;6.838;2022-08-19T13:20:00;12.20;;;4.47;;
27491;SDS011;14927;51.210;6.838;2022-08-19T13:22:55;6.82;;;4.85;;
27491;SDS011;14927;51.210;6.838;2022-08-19T13:25:40;7.18;;;4.38;;
27491;SDS011;14927;51.210;6.838;2022-08-19T13:28:25;8.07;;;4.53;;
27491;SDS011;14927;51.210;6.838;2022-08-19T13:31:31;4.95;;;4.43;;
27491;SDS011;14927;51.210;6.838;2022-08-19T13:34:37;8.18;;;5.00;;
27491;SDS011;14927;51.210;6.838;2022-08-19T13:37:23;4.95;;;4.20;;
27491;SDS011;14927;51.210;6.838;2022-08-19T13:40:24;6.15;;;3.90;;
27491;SDS011;14927;51.210;6.838;2022-08-19T13:43:18;4.45;;;3.90;;
27491;SDS011;14927;51.210;6.838;2022-08-19T13:46:09;7.57;;;3.65;;
27491;SDS011;14927;51.210;6.838;2022-08-19T13:48:57;8.80;;;3.67;;
27491;SDS011;14927;51.210;6.838;2022-08-19T13:51:42;4.32;;;3.10;;
27491;SDS011;14927;51.210;6.838;2022-08-19T13:54:30;5.95;;;3.28;;
27491;SDS011;14927;51.210;6.838;2022-08-19T13:57:14;6.30;;;3.22;;
27491;SDS011;14927;51.210;6.838;2022-08-19T14:00:00;4.57;;;3.80;;
27491;SDS011;14927;51.210;6.838;2022-08-19T14:02:49;7.50;;;4.10;;
27491;SDS011;14927;51.210;6.838;2022-08-19T14:05:36;6.27;;;3.33;;
27491;SDS011;14927;51.210;6.838;2022-08-19T14:08:25;5.78;;;3.28;;
27491;SDS011;14927;51.210;6.838;2022-08-19T14:11:11;6.00;;;3.53;;
27491;SDS011;14927;51.210;6.838;2022-08-19T14:13:56;5.93;;;2.67;;
27491;SDS011;14927;51.210;6.838;2022-08-19T14:16:42;4.90;;;2.63;;
27491;SDS011;14927;51.210;6.838;2022-08-19T14:19:26;5.10;;;2.55;;
27491;SDS011;14927;51.210;6.838;2022-08-19T14:22:11;2.38;;;2.17;;
27491;SDS011;14927;51.210;6.838;2022-08-19T14:24:56;5.43;;;2.72;;
27491;SDS011;14927;51.210;6.838;2022-08-19T14:27:50;3.33;;;2.28;;
27491;SDS011;14927;51.210;6.838;2022-08-19T14:30:44;4.28;;;2.78;;
27491;SDS011;14927;51.210;6.838;2022-08-19T14:33:33;3.70;;;2.45;;
27491;SDS011;14927;51.210;6.838;2022-08-19T14:36:27;5.90;;;2.20;;
27491;SDS011;14927;51.210;6.838;2022-08-19T14:39:12;5.07;;;2.70;;
27491;SDS011;14927;51.210;6.838;2022-08-19T14:41:59;6.40;;;2.60;;
27491;SDS011;14927;51.210;6.838;2022-08-19T14:44:51;4.70;;;2.40;;
27491;SDS011;14927;51.210;6.838;2022-08-19T14:47:56;3.08;;;2.00;;
27491;SDS011;14927;51.210;6.838;2022-08-19T14:50:44;5.28;;;2.20;;
27491;SDS011;14927;51.210;6.838;2022-08-19T14:53:32;6.18;;;2.85;;
27491;SDS011;14927;51.210;6.838;2022-08-19T14:56:34;5.45;;;2.30;;
27491;SDS011;14927;51.210;6.838;2022-08-19T14:59:28;9.77;;;2.83;;
27491;SDS011;14927;51.210;6.838;2022-08-19T15:02:31;5.70;;;2.10;;
27491;SDS011;14927;51.210;6.838;2022-08-19T15:05:06;5.38;;;2.08;;
27491;SDS011;14927;51.210;6.838;2022-08-19T15:07:52;4.53;;;2.38;;
27491;SDS011;14927;51.210;6.838;2022-08-19T15:10:38;5.60;;;2.22;;
27491;SDS011;14927;51.210;6.838;2022-08-19T15:13:23;5.72;;;1.90;;
27491;SDS011;14927;51.210;6.838;2022-08-19T15:16:10;3.20;;;2.08;;
27491;SDS011;14927;51.210;6.838;2022-08-19T15:18:58;6.93;;;2.35;;
27491;SDS011;14927;51.210;6.838;2022-08-19T15:21:46;4.97;;;1.80;;
27491;SDS011;14927;51.210;6.838;2022-08-19T15:24:32;2.42;;;2.00;;
27491;SDS011;14927;51.210;6.838;2022-08-19T15:27:19;3.05;;;2.00;;
27491;SDS011;14927;51.210;6.838;2022-08-19T15:30:04;6.63;;;2.40;;
27491;SDS011;14927;51.210;6.838;2022-08-19T15:38:25;4.85;;;2.15;;
27491;SDS011;14927;51.210;6.838;2022-08-19T15:41:18;6.10;;;2.42;;
27491;SDS011;14927;51.210;6.838;2022-08-19T15:44:07;3.97;;;2.38;;
27491;SDS011;14927;51.210;6.838;2022-08-19T15:46:54;4.13;;;2.60;;
27491;SDS011;14927;51.210;6.838;2022-08-19T15:49:40;4.90;;;2.33;;
27491;SDS011;14927;51.210;6.838;2022-08-19T15:52:25;5.70;;;2.47;;
27491;SDS011;14927;51.210;6.838;2022-08-19T15:55:09;6.72;;;2.45;;
27491;SDS011;14927;51.210;6.838;2022-08-19T15:57:54;2.70;;;2.50;;
27491;SDS011;14927;51.210;6.838;2022-08-19T16:00:58;5.85;;;2.63;;
27491;SDS011;14927;51.210;6.838;2022-08-19T16:04:07;4.32;;;2.60;;
27491;SDS011;14927;51.210;6.838;2022-08-19T16:07:10;3.10;;;2.83;;
27491;SDS011;14927;51.210;6.838;2022-08-19T16:09:55;3.22;;;2.60;;
27491;SDS011;14927;51.210;6.838;2022-08-19T16:12:40;7.55;;;2.80;;
27491;SDS011;14927;51.210;6.838;2022-08-19T16:15:25;2.70;;;2.50;;
27491;SDS011;14927;51.210;6.838;2022-08-19T16:18:13;3.20;;;2.75;;
27491;SDS011;14927;51.210;6.838;2022-08-19T16:20:58;2.85;;;2.53;;
27491;SDS011;14927;51.210;6.838;2022-08-19T16:23:47;2.20;;;2.00;;
27491;SDS011;14927;51.210;6.838;2022-08-19T16:26:33;3.10;;;2.20;;
27491;SDS011;14927;51.210;6.838;2022-08-19T16:29:19;4.68;;;2.35;;
27491;SDS011;14927;51.210;6.838;2022-08-19T16:32:08;3.00;;;2.17;;
27491;SDS011;14927;51.210;6.838;2022-08-19T16:34:54;2.45;;;2.25;;
27491;SDS011;14927;51.210;6.838;2022-08-19T16:37:38;3.05;;;2.45;;
27491;SDS011;14927;51.210;6.838;2022-08-19T16:40:23;2.67;;;2.47;;
27491;SDS011;14927;51.210;6.838;2022-08-19T16:43:08;3.25;;;2.75;;
27491;SDS011;14927;51.210;6.838;2022-08-19T16:45:54;2.53;;;2.33;;
27491;SDS011;14927;51.210;6.838;2022-08-19T16:48:40;2.42;;;2.22;;
27491;SDS011;14927;51.210;6.838;2022-08-19T16:51:29;6.82;;;3.42;;
27491;SDS011;14927;51.210;6.838;2022-08-19T16:54:16;3.45;;;3.13;;
27491;SDS011;14927;51.210;6.838;2022-08-19T16:57:01;6.03;;;3.25;;
27491;SDS011;14927;51.210;6.838;2022-08-19T16:59:50;4.65;;;3.17;;